Weather at Starbase Airport

Public forecast

Using degrees Fahrenheit for public forecast. Weather courtesy of forecast.io.

Closest aviation weather report (METAR) to Starbase Airport

Closest report is Langley Air Force Base, 20.0 nm (37.1 km) WSW. Retrieved 2020/12/04 22:56 UTC (11 minutes ago):

KLFI 042256Z AUTO 15004KT 10SM BKN048 OVC140 16/12 A3001 RMK AO2 SLP169 T01610117

Closest aviation forecast (TAF) to Starbase Airport

Closest forecast is Langley Air Force Base, 20.0 nm (37.1 km) WSW. Retrieved 2020/12/04 18:15 UTC (5 hours ago):

TAF KLFI 041800Z 0418/0524 21010G15KT 9999 SCT020 BKN100 QNH2993INS BECMG 0501/0502 17012KT 6000 -RA BKN010 QNH2989INS BECMG 0502/0503 18015G25KT 3200 RA OVC005 QNH2956INS TEMPO 0505/0510 1600 TSRA OVC005CB BECMG 0509/0510 33015G25KT 6000 -RA OVC005 QNH2958INS BECMG 0511/0512 33025G35KT 9999 NSW SCT008 BKN015 QNH2974INS BECMG 0518/0519 32015G25KT 9999 BKN030 QNH2989INS TX18/0507Z TN12/0513Z